createdAt,value
2019-03-23T00:01:40.479Z,68.97
2019-03-23T00:04:07.846Z,59.83
2019-03-23T00:06:35.293Z,75.83
2019-03-23T00:09:04.857Z,68.23
2019-03-23T00:11:32.245Z,66.30
2019-03-23T00:13:59.702Z,70.13
2019-03-23T00:16:27.181Z,76.13
2019-03-23T00:18:54.580Z,83.20
2019-03-23T00:21:22.006Z,79.10
2019-03-23T00:23:49.353Z,76.03
2019-03-23T00:26:16.837Z,79.90
2019-03-23T00:28:44.278Z,78.63
2019-03-23T00:31:11.830Z,77.23
2019-03-23T00:33:39.211Z,74.07
2019-03-23T00:36:06.557Z,77.83
2019-03-23T00:38:33.998Z,83.70
2019-03-23T00:41:01.510Z,80.83
2019-03-23T00:43:29.051Z,76.20
2019-03-23T00:45:56.499Z,80.30
2019-03-23T00:48:23.978Z,81.30
2019-03-23T00:50:51.313Z,80.93
2019-03-23T00:53:18.655Z,78.50
2019-03-23T00:55:46.146Z,77.87
2019-03-23T00:58:13.485Z,81.03
2019-03-23T01:00:41.049Z,82.27
2019-03-23T01:03:08.551Z,79.87
2019-03-23T01:05:35.993Z,89.77
2019-03-23T01:08:03.651Z,89.63
2019-03-23T01:10:31.132Z,94.20
2019-03-23T01:12:58.642Z,86.43
2019-03-23T01:15:26.086Z,81.60
2019-03-23T01:17:53.571Z,86.87
2019-03-23T01:20:20.887Z,92.03
2019-03-23T01:22:48.309Z,92.80
2019-03-23T01:25:15.706Z,92.47
2019-03-23T01:27:43.154Z,83.73
2019-03-23T01:30:11.222Z,84.83
2019-03-23T01:32:38.606Z,95.93
2019-03-23T01:35:07.050Z,93.50
2019-03-23T01:37:34.456Z,91.37
2019-03-23T01:40:02.055Z,104.67
2019-03-23T01:42:29.502Z,97.10
2019-03-23T01:44:56.926Z,94.50
2019-03-23T01:47:24.426Z,88.17
2019-03-23T01:49:51.751Z,89.37
2019-03-23T01:52:19.102Z,98.77
2019-03-23T01:54:46.505Z,88.23
2019-03-23T01:57:13.946Z,103.63
2019-03-23T01:59:41.391Z,98.67
2019-03-23T02:02:08.879Z,104.53
2019-03-23T02:04:36.323Z,104.77
2019-03-23T02:07:13.500Z,106.90
2019-03-23T02:09:33.172Z,119.93
2019-03-23T02:12:00.759Z,103.77
2019-03-23T02:14:28.130Z,111.40
2019-03-23T02:16:55.594Z,97.97
2019-03-23T02:19:22.953Z,125.90
2019-03-23T02:21:50.410Z,114.17
2019-03-23T02:24:17.769Z,113.23
2019-03-23T02:26:45.220Z,120.63
2019-03-23T02:29:12.550Z,128.87
2019-03-23T02:31:39.986Z,124.73
2019-03-23T02:34:07.414Z,129.97
2019-03-23T02:36:34.777Z,137.03
2019-03-23T02:39:04.134Z,135.47
2019-03-23T02:41:31.598Z,134.97
2019-03-23T02:43:58.932Z,135.23
2019-03-23T02:46:26.417Z,142.00
2019-03-23T02:48:53.878Z,122.37
2019-03-23T02:51:21.313Z,129.93
2019-03-23T02:53:48.795Z,124.50
2019-03-23T02:56:16.147Z,126.53
2019-03-23T02:58:43.472Z,125.43
2019-03-23T03:01:10.848Z,124.90
2019-03-23T03:03:38.280Z,132.67
2019-03-23T03:06:05.638Z,130.97
2019-03-23T03:08:33.028Z,135.83
2019-03-23T03:11:00.379Z,141.77
2019-03-23T03:13:27.738Z,129.10
2019-03-23T03:15:55.126Z,127.27
2019-03-23T03:18:22.463Z,128.63
2019-03-23T03:20:49.907Z,142.47
2019-03-23T03:23:17.265Z,140.63
2019-03-23T03:25:44.602Z,139.03
2019-03-23T03:28:12.023Z,146.30
2019-03-23T03:30:39.541Z,147.53
2019-03-23T03:33:07.112Z,154.10
2019-03-23T03:35:34.453Z,159.03
2019-03-23T03:38:01.843Z,165.83
2019-03-23T03:40:29.313Z,160.20
2019-03-23T03:42:57.145Z,157.67
2019-03-23T03:45:25.394Z,167.07
2019-03-23T03:47:53.141Z,163.33
2019-03-23T03:50:20.614Z,174.03
2019-03-23T03:52:48.002Z,163.70
2019-03-23T03:55:15.442Z,182.37
2019-03-23T03:57:42.887Z,184.00
2019-03-23T04:00:10.574Z,193.60
2019-03-23T04:02:38.014Z,202.00
2019-03-23T04:05:05.967Z,220.63
2019-03-23T04:07:33.352Z,220.37
2019-03-23T04:10:00.723Z,229.80
2019-03-23T04:12:28.330Z,246.50
2019-03-23T04:14:55.692Z,271.17
2019-03-23T04:17:23.051Z,286.57
2019-03-23T04:19:50.518Z,283.47
2019-03-23T04:22:17.970Z,306.57
2019-03-23T04:24:45.401Z,315.53
2019-03-23T04:27:12.846Z,305.67
2019-03-23T04:29:40.279Z,294.50
2019-03-23T04:32:07.738Z,320.40
2019-03-23T04:34:35.090Z,319.47
2019-03-23T04:37:02.550Z,352.47
2019-03-23T04:39:29.894Z,347.10
2019-03-23T04:41:57.221Z,337.93
2019-03-23T04:44:24.593Z,352.40
2019-03-23T04:46:52.021Z,358.67
2019-03-23T04:49:19.365Z,340.70
2019-03-23T04:51:46.831Z,324.60
2019-03-23T04:54:14.189Z,352.80
2019-03-23T04:56:41.523Z,326.17
2019-03-23T04:59:08.990Z,323.20
2019-03-23T05:01:36.325Z,338.47
2019-03-23T05:04:03.861Z,309.53
2019-03-23T05:06:31.350Z,301.13
2019-03-23T05:08:58.787Z,308.83
2019-03-23T05:11:26.157Z,307.93
2019-03-23T05:13:53.622Z,279.80
2019-03-23T05:16:20.949Z,286.03
2019-03-23T05:18:48.283Z,281.20
2019-03-23T05:21:15.816Z,277.93
2019-03-23T05:23:45.732Z,277.60
2019-03-23T05:26:12.715Z,239.30
2019-03-23T05:28:40.083Z,255.17
2019-03-23T05:31:07.542Z,231.97
2019-03-23T05:33:34.865Z,264.00
2019-03-23T05:36:02.361Z,246.17
2019-03-23T05:38:29.773Z,253.73
2019-03-23T05:40:57.231Z,243.97
2019-03-23T05:43:24.816Z,225.50
2019-03-23T05:45:52.283Z,226.97
2019-03-23T05:48:19.636Z,223.07
2019-03-23T05:50:47.129Z,195.43
2019-03-23T05:53:14.573Z,218.53
2019-03-23T05:55:42.026Z,197.50
2019-03-23T05:58:09.420Z,209.13
2019-03-23T06:00:36.870Z,223.60
2019-03-23T06:03:04.210Z,211.33
2019-03-23T06:05:31.605Z,195.93
2019-03-23T06:07:59.044Z,210.10
2019-03-23T06:10:26.487Z,184.33
2019-03-23T06:12:53.987Z,185.83
2019-03-23T06:15:21.445Z,178.27
2019-03-23T06:17:48.845Z,167.30
2019-03-23T06:20:16.348Z,164.67
2019-03-23T06:22:43.873Z,154.40
2019-03-23T06:25:11.311Z,152.93
2019-03-23T06:27:38.699Z,143.10
2019-03-23T06:30:06.986Z,136.40
2019-03-23T06:32:34.531Z,124.67
2019-03-23T06:35:02.030Z,109.70
2019-03-23T06:37:29.589Z,116.67
2019-03-23T06:39:56.918Z,108.23
2019-03-23T06:42:24.295Z,109.87
2019-03-23T06:44:51.715Z,115.73
2019-03-23T06:47:19.197Z,103.37
2019-03-23T06:49:46.605Z,93.33
2019-03-23T06:52:14.081Z,88.07
2019-03-23T06:54:41.422Z,79.77
2019-03-23T06:57:08.924Z,86.63
2019-03-23T06:59:36.452Z,82.33
2019-03-23T07:02:03.889Z,80.97
2019-03-23T07:04:31.502Z,77.97
2019-03-23T07:06:59.025Z,85.70
2019-03-23T07:09:26.558Z,77.03
2019-03-23T07:11:54.098Z,83.57
2019-03-23T07:14:21.577Z,90.27
2019-03-23T07:16:49.010Z,86.70
2019-03-23T07:19:16.409Z,90.33
2019-03-23T07:21:43.861Z,78.30
2019-03-23T07:24:11.226Z,86.97
2019-03-23T07:26:38.818Z,79.80
2019-03-23T07:29:06.379Z,79.27
2019-03-23T07:31:34.603Z,84.30
2019-03-23T07:34:02.181Z,80.60
2019-03-23T07:36:29.655Z,70.50
2019-03-23T07:38:57.119Z,79.37
2019-03-23T07:41:24.526Z,77.93
2019-03-23T07:43:51.877Z,77.17
2019-03-23T07:46:19.222Z,77.63
2019-03-23T07:48:46.815Z,70.77
2019-03-23T07:51:14.380Z,70.53
2019-03-23T07:53:41.982Z,70.50
2019-03-23T07:56:09.567Z,73.57
2019-03-23T07:58:37.121Z,74.10
2019-03-23T08:01:04.577Z,74.90
2019-03-23T08:03:31.982Z,71.03
2019-03-23T08:05:59.350Z,71.53
2019-03-23T08:08:26.708Z,74.17
2019-03-23T08:10:54.378Z,70.97
2019-03-23T08:13:22.107Z,68.37
2019-03-23T08:15:49.589Z,69.37
2019-03-23T08:18:16.954Z,73.20
2019-03-23T08:20:44.320Z,65.20
2019-03-23T08:23:11.657Z,63.90
2019-03-23T08:25:39.266Z,65.83
2019-03-23T08:28:06.601Z,65.57
2019-03-23T08:30:34.062Z,60.13
2019-03-23T08:33:01.430Z,56.80
2019-03-23T08:35:28.887Z,65.83
2019-03-23T08:37:56.395Z,59.93
2019-03-23T08:40:23.985Z,58.10
2019-03-23T08:42:51.334Z,57.23
2019-03-23T08:45:18.898Z,57.07
2019-03-23T08:47:46.372Z,58.77
2019-03-23T08:50:13.914Z,64.50
2019-03-23T08:52:41.380Z,59.23
2019-03-23T08:55:08.885Z,60.93
2019-03-23T08:57:36.242Z,57.07
2019-03-23T09:00:04.651Z,57.57
2019-03-23T09:02:32.149Z,63.17
2019-03-23T09:04:59.617Z,60.20
2019-03-23T09:07:27.082Z,63.33
2019-03-23T09:09:59.178Z,57.83
2019-03-23T09:12:24.028Z,63.37
2019-03-23T09:14:51.574Z,63.60
2019-03-23T09:17:19.159Z,60.97
2019-03-23T09:19:47.141Z,64.67
2019-03-23T09:22:14.605Z,60.10
2019-03-23T09:24:42.090Z,54.90
2019-03-23T09:27:09.530Z,59.37
2019-03-23T09:29:37.063Z,58.20
2019-03-23T09:32:04.787Z,65.30
2019-03-23T09:34:32.226Z,57.40
2019-03-23T09:36:59.686Z,56.23
2019-03-23T09:39:27.156Z,58.57
2019-03-23T09:41:54.514Z,61.40
2019-03-23T09:44:21.974Z,56.67
2019-03-23T09:46:49.351Z,58.20
2019-03-23T09:49:16.789Z,57.27
2019-03-23T09:51:44.226Z,57.50
2019-03-23T09:54:11.617Z,56.13
2019-03-23T09:56:38.974Z,58.73
2019-03-23T09:59:06.386Z,52.13
2019-03-23T10:01:33.886Z,52.63
2019-03-23T10:04:01.345Z,46.80
2019-03-23T10:06:28.693Z,53.77
2019-03-23T10:08:56.163Z,45.87
2019-03-23T10:11:23.496Z,50.73
2019-03-23T10:13:50.888Z,44.83
2019-03-23T10:16:18.363Z,46.20
2019-03-23T10:18:45.809Z,44.77
2019-03-23T10:21:13.141Z,41.90
2019-03-23T10:23:40.713Z,48.57
2019-03-23T10:26:08.257Z,44.93
2019-03-23T10:28:35.794Z,48.87
2019-03-23T10:31:03.357Z,51.27
2019-03-23T10:33:30.780Z,39.70
2019-03-23T10:35:58.209Z,37.20
2019-03-23T10:38:25.564Z,40.67
2019-03-23T10:40:53.051Z,31.27
2019-03-23T10:43:20.412Z,32.33
2019-03-23T10:45:47.997Z,33.77
2019-03-23T10:48:15.347Z,28.63
2019-03-23T10:50:42.885Z,28.70
2019-03-23T10:53:10.366Z,29.82
2019-03-23T10:55:37.704Z,31.87
2019-03-23T10:58:05.241Z,26.50
2019-03-23T11:00:32.841Z,24.23
2019-03-23T11:03:00.169Z,26.33
2019-03-23T11:05:27.502Z,20.27
2019-03-23T11:07:54.887Z,19.87
2019-03-23T11:10:22.414Z,26.43
2019-03-23T11:12:49.749Z,18.73
2019-03-23T11:15:17.124Z,20.33
2019-03-23T11:17:44.614Z,23.43
2019-03-23T11:20:12.309Z,21.03
2019-03-23T11:22:39.815Z,23.63
2019-03-23T11:25:07.740Z,20.77
2019-03-23T11:27:35.191Z,24.83
2019-03-23T11:30:03.297Z,25.57
2019-03-23T11:32:30.765Z,18.50
2019-03-23T11:34:58.306Z,26.27
2019-03-23T11:37:25.981Z,18.33
2019-03-23T11:39:53.413Z,25.03
2019-03-23T11:42:20.868Z,19.63
2019-03-23T11:44:48.321Z,18.10
2019-03-23T11:47:15.742Z,19.60
2019-03-23T11:49:43.309Z,19.20
2019-03-23T11:52:10.690Z,16.87
2019-03-23T11:54:38.162Z,16.00
2019-03-23T11:57:05.866Z,18.47
2019-03-23T11:59:33.709Z,15.47
2019-03-23T12:02:01.930Z,16.27
2019-03-23T12:04:29.740Z,21.40
2019-03-23T12:06:57.435Z,17.67
2019-03-23T12:09:25.009Z,10.23
2019-03-23T12:11:53.227Z,13.40
2019-03-23T12:14:21.022Z,16.60
2019-03-23T12:16:48.465Z,9.97
2019-03-23T12:19:16.126Z,13.00
2019-03-23T12:21:43.606Z,16.93
2019-03-23T12:24:11.063Z,16.70
2019-03-23T12:26:38.493Z,17.17
2019-03-23T12:29:06.043Z,14.73
2019-03-23T12:31:33.501Z,11.37
2019-03-23T12:34:00.896Z,13.67
2019-03-23T12:36:28.496Z,12.47
2019-03-23T12:38:56.089Z,12.87
2019-03-23T12:41:23.653Z,15.00
2019-03-23T12:43:53.735Z,10.77
2019-03-23T12:46:21.078Z,15.83
2019-03-23T12:48:48.457Z,10.17
2019-03-23T12:51:16.051Z,16.57
2019-03-23T12:53:43.526Z,15.50
2019-03-23T12:56:11.846Z,14.67
2019-03-23T12:58:39.884Z,12.60
2019-03-23T13:01:07.548Z,10.80
2019-03-23T13:03:35.085Z,15.30
2019-03-23T13:06:02.706Z,14.47
2019-03-23T13:08:30.041Z,8.73
2019-03-23T13:10:57.493Z,15.77
2019-03-23T13:13:24.881Z,11.10
2019-03-23T13:15:52.441Z,14.40
2019-03-23T13:18:27.136Z,12.80
2019-03-23T13:20:49.395Z,14.23
2019-03-23T13:23:16.779Z,10.60
2019-03-23T13:25:44.247Z,14.33
2019-03-23T13:28:11.625Z,12.23
2019-03-23T13:30:39.066Z,12.73
2019-03-23T13:33:06.552Z,10.33
2019-03-23T13:35:34.039Z,10.90
2019-03-23T13:38:01.365Z,12.87
2019-03-23T13:40:29.002Z,13.57
2019-03-23T13:42:56.437Z,15.63
2019-03-23T13:45:23.908Z,11.97
2019-03-23T13:47:51.344Z,11.17
2019-03-23T13:50:25.762Z,15.60
2019-03-23T13:52:53.234Z,11.33
2019-03-23T13:55:25.201Z,11.13
2019-03-23T13:57:52.787Z,13.97
2019-03-23T14:00:20.134Z,12.80
2019-03-23T14:02:47.559Z,13.33
2019-03-23T14:05:16.356Z,12.73
2019-03-23T14:07:43.905Z,16.40
2019-03-23T14:10:11.469Z,12.00
2019-03-23T14:12:39.042Z,11.07
2019-03-23T14:15:07.406Z,13.97
2019-03-23T14:17:34.757Z,15.20
2019-03-23T14:20:02.470Z,9.93
2019-03-23T14:22:29.820Z,14.10
2019-03-23T14:24:57.290Z,9.87
2019-03-23T14:27:24.779Z,11.53
2019-03-23T14:29:52.426Z,9.73
2019-03-23T14:32:19.973Z,18.40
2019-03-23T14:34:47.378Z,9.23
2019-03-23T14:37:14.796Z,10.67
2019-03-23T14:39:42.140Z,13.67
2019-03-23T14:42:09.539Z,11.13
2019-03-23T14:44:36.993Z,18.47
2019-03-23T14:47:04.564Z,13.97
2019-03-23T14:49:32.038Z,10.20
2019-03-23T14:51:59.368Z,9.50
2019-03-23T14:54:26.854Z,14.80
2019-03-23T14:56:54.321Z,10.00
2019-03-23T14:59:21.778Z,13.93
2019-03-23T15:01:49.145Z,14.90
2019-03-23T15:04:16.778Z,10.10
2019-03-23T15:06:44.109Z,12.43
2019-03-23T15:09:11.554Z,9.10
2019-03-23T15:11:39.026Z,9.00
2019-03-23T15:14:06.585Z,10.80
2019-03-23T15:16:34.043Z,13.60
2019-03-23T15:19:01.416Z,14.63
2019-03-23T15:21:28.791Z,15.93
2019-03-23T15:23:56.330Z,12.67
2019-03-23T15:26:23.750Z,11.23
2019-03-23T15:28:51.076Z,15.37
2019-03-23T15:31:18.618Z,14.60
2019-03-23T15:33:46.081Z,9.23
2019-03-23T15:36:13.509Z,9.57
2019-03-23T15:38:40.968Z,12.00
2019-03-23T15:41:08.517Z,9.13
2019-03-23T15:43:36.074Z,13.13
2019-03-23T15:46:03.822Z,15.07
2019-03-23T15:48:31.455Z,10.77
2019-03-23T15:50:59.028Z,15.27
2019-03-23T15:53:26.366Z,13.07
2019-03-23T15:55:53.958Z,13.23
2019-03-23T15:58:21.427Z,9.43
2019-03-23T16:00:48.877Z,13.00
2019-03-23T16:03:16.253Z,10.67
2019-03-23T16:05:43.602Z,16.27
2019-03-23T16:08:11.045Z,15.20
2019-03-23T16:10:38.543Z,15.20
2019-03-23T16:13:06.114Z,9.23
2019-03-23T16:15:33.566Z,13.70
2019-03-23T16:18:01.733Z,14.33
2019-03-23T16:20:29.409Z,13.90
2019-03-23T16:22:56.853Z,20.37
2019-03-23T16:25:24.255Z,9.20
2019-03-23T16:27:51.711Z,15.70
2019-03-23T16:30:28.710Z,11.60
2019-03-23T16:32:56.175Z,15.40
2019-03-23T16:35:23.625Z,10.43
2019-03-23T16:37:51.125Z,15.00
2019-03-23T16:40:18.610Z,16.53
2019-03-23T16:42:46.246Z,13.73
2019-03-23T16:45:13.847Z,8.80
2019-03-23T16:47:41.542Z,13.73
2019-03-23T16:50:09.602Z,12.30
2019-03-23T16:52:37.865Z,18.73
2019-03-23T16:55:07.782Z,16.23
2019-03-23T16:57:35.323Z,14.43
2019-03-23T17:00:03.286Z,11.40
2019-03-23T17:02:30.627Z,14.30
2019-03-23T17:04:58.009Z,9.13
2019-03-23T17:07:25.487Z,12.97
2019-03-23T17:09:52.831Z,12.80
2019-03-23T17:12:20.166Z,12.40
2019-03-23T17:14:47.674Z,10.20
2019-03-23T17:17:15.117Z,13.90
2019-03-23T17:19:42.529Z,8.67
2019-03-23T17:22:10.292Z,9.37
2019-03-23T17:24:37.633Z,9.73
2019-03-23T17:27:05.192Z,10.63
2019-03-23T17:29:32.673Z,14.20
2019-03-23T17:32:00.030Z,11.07
2019-03-23T17:34:27.377Z,11.70
2019-03-23T17:36:54.766Z,13.87
2019-03-23T17:39:22.123Z,15.37
2019-03-23T17:41:49.533Z,11.80
2019-03-23T17:44:16.900Z,16.33
2019-03-23T17:46:44.249Z,9.97
2019-03-23T17:49:11.712Z,16.50
2019-03-23T17:51:39.185Z,21.67
2019-03-23T17:54:06.621Z,21.07
2019-03-23T17:56:34.161Z,12.10
2019-03-23T17:59:01.659Z,7.67
2019-03-23T18:01:29.104Z,11.03
2019-03-23T18:03:56.441Z,13.43
2019-03-23T18:06:23.911Z,11.07
2019-03-23T18:08:51.237Z,11.00
2019-03-23T18:11:18.678Z,9.83
2019-03-23T18:13:46.047Z,9.53
2019-03-23T18:16:13.398Z,10.50
2019-03-23T18:18:40.738Z,11.43
2019-03-23T18:21:08.098Z,12.43
2019-03-23T18:23:35.553Z,10.80
2019-03-23T18:26:03.095Z,10.90
2019-03-23T18:28:30.658Z,14.30
2019-03-23T18:30:58.098Z,9.93
2019-03-23T18:33:25.744Z,10.63
2019-03-23T18:35:53.231Z,8.30
2019-03-23T18:38:20.649Z,10.87
2019-03-23T18:40:48.089Z,17.63
2019-03-23T18:43:15.671Z,12.00
2019-03-23T18:45:43.142Z,7.43
2019-03-23T18:48:10.669Z,10.23
2019-03-23T18:50:38.240Z,7.20
2019-03-23T18:53:05.812Z,8.23
2019-03-23T18:55:33.169Z,7.47
2019-03-23T18:58:00.630Z,8.10
2019-03-23T19:00:38.970Z,9.90
2019-03-23T19:03:06.570Z,9.20
2019-03-23T19:05:34.256Z,13.17
2019-03-23T19:08:01.805Z,11.90
2019-03-23T19:10:29.389Z,10.43
2019-03-23T19:12:57.001Z,12.27
2019-03-23T19:15:24.442Z,9.00
2019-03-23T19:17:52.043Z,15.73
2019-03-23T19:20:19.569Z,11.47
2019-03-23T19:22:46.910Z,11.27
2019-03-23T19:25:17.234Z,8.90
2019-03-23T19:27:43.734Z,11.27
2019-03-23T19:30:11.485Z,10.00
2019-03-23T19:32:38.947Z,10.70
2019-03-23T19:35:06.786Z,13.57
2019-03-23T19:37:34.346Z,11.00
2019-03-23T19:40:01.920Z,12.43
2019-03-23T19:42:29.441Z,11.93
2019-03-23T19:44:56.776Z,9.87
2019-03-23T19:47:24.455Z,7.73
2019-03-23T19:49:51.939Z,11.30
2019-03-23T19:52:19.370Z,12.00
2019-03-23T19:54:46.758Z,10.60
2019-03-23T19:57:14.298Z,11.07
2019-03-23T19:59:41.853Z,9.00
2019-03-23T20:02:09.329Z,6.63
2019-03-23T20:04:36.787Z,10.90
2019-03-23T20:07:04.341Z,11.63
2019-03-23T20:09:31.960Z,11.33
2019-03-23T20:11:59.420Z,9.83
2019-03-23T20:14:26.729Z,9.73
2019-03-23T20:16:54.326Z,12.03
2019-03-23T20:19:21.870Z,11.53
2019-03-23T20:21:49.309Z,12.83
2019-03-23T20:24:16.931Z,10.93
2019-03-23T20:26:44.391Z,11.23
2019-03-23T20:29:11.729Z,14.23
2019-03-23T20:31:39.197Z,12.43
2019-03-23T20:34:06.643Z,10.93
2019-03-23T20:36:34.093Z,9.00
2019-03-23T20:39:01.561Z,11.30
2019-03-23T20:41:30.321Z,9.83
2019-03-23T20:43:58.083Z,6.83
2019-03-23T20:46:25.765Z,7.00
2019-03-23T20:48:53.357Z,12.33
2019-03-23T20:51:20.994Z,13.80
2019-03-23T20:53:48.625Z,9.07
2019-03-23T20:56:15.979Z,8.30
2019-03-23T20:58:43.364Z,7.50
2019-03-23T21:01:10.947Z,6.67
2019-03-23T21:03:38.369Z,10.07
2019-03-23T21:06:05.919Z,14.73
2019-03-23T21:08:33.293Z,12.23
2019-03-23T21:11:00.651Z,14.73
2019-03-23T21:13:28.152Z,12.67
2019-03-23T21:15:55.805Z,11.33
2019-03-23T21:18:23.247Z,8.70
2019-03-23T21:20:50.673Z,13.10
2019-03-23T21:23:18.070Z,9.50
2019-03-23T21:25:45.400Z,10.77
2019-03-23T21:28:12.949Z,17.10
2019-03-23T21:30:40.321Z,25.43
2019-03-23T21:33:07.662Z,11.53
2019-03-23T21:35:35.109Z,9.97
2019-03-23T21:38:02.900Z,10.73
2019-03-23T21:40:30.258Z,15.10
2019-03-23T21:42:57.627Z,10.90
2019-03-23T21:45:25.224Z,10.60
2019-03-23T21:47:52.699Z,12.53
2019-03-23T21:50:20.253Z,9.67
2019-03-23T21:52:47.714Z,11.63
2019-03-23T21:55:15.454Z,20.40
2019-03-23T21:57:42.906Z,12.87
2019-03-23T22:00:10.914Z,16.00
2019-03-23T22:02:38.350Z,13.33
2019-03-23T22:05:06.515Z,11.87
2019-03-23T22:07:34.069Z,12.70
2019-03-23T22:10:01.397Z,13.63
2019-03-23T22:12:28.852Z,12.57
2019-03-23T22:14:56.336Z,8.37
2019-03-23T22:17:23.670Z,17.83
2019-03-23T22:19:51.014Z,10.30
2019-03-23T22:22:18.500Z,10.43
2019-03-23T22:24:45.836Z,14.47
2019-03-23T22:27:13.182Z,14.20
2019-03-23T22:29:40.661Z,11.27
2019-03-23T22:32:08.199Z,10.23
2019-03-23T22:34:35.559Z,15.27
2019-03-23T22:37:03.128Z,13.67
2019-03-23T22:39:30.565Z,11.07
2019-03-23T22:41:58.034Z,15.27
2019-03-23T22:44:25.505Z,5.73
2019-03-23T22:46:52.991Z,13.90
2019-03-23T22:49:20.323Z,11.40
2019-03-23T22:51:47.713Z,10.27
2019-03-23T22:54:15.160Z,13.23
2019-03-23T22:56:42.490Z,11.53
2019-03-23T22:59:10.554Z,9.47
2019-03-23T23:01:38.406Z,18.37
2019-03-23T23:04:05.837Z,10.07
2019-03-23T23:06:33.404Z,13.33
2019-03-23T23:09:00.850Z,12.10
2019-03-23T23:11:28.380Z,18.03
2019-03-23T23:13:55.900Z,25.07
2019-03-23T23:16:23.223Z,11.57
2019-03-23T23:18:50.658Z,13.10
2019-03-23T23:21:18.053Z,17.77
2019-03-23T23:23:45.493Z,22.30
2019-03-23T23:26:12.835Z,12.70
2019-03-23T23:28:40.203Z,9.73
2019-03-23T23:31:07.655Z,14.80
2019-03-23T23:33:35.213Z,19.17
2019-03-23T23:36:02.795Z,21.67
2019-03-23T23:38:30.150Z,17.07
2019-03-23T23:40:57.514Z,14.80
2019-03-23T23:43:25.093Z,15.17
2019-03-23T23:45:52.628Z,15.87
2019-03-23T23:48:20.167Z,23.80
2019-03-23T23:50:47.549Z,20.23
2019-03-23T23:53:14.998Z,14.00
2019-03-23T23:55:42.444Z,19.90
2019-03-23T23:58:09.801Z,14.93
